Time;durP1;ratioP1;P1;durP2;ratioP2;P2;SDS_P1;SDS_P2;PMS_P1;PMS_P2;Temp;Humidity;BMP_temperature;BMP_pressure;BME280_temperature;BME280_humidity;BME280_pressure;Samples;Min_cycle;Max_cycle;Signal;HPM_P1;HPM_P2
2023/06/14 00:00:20;;;;;;;0.10;0.10;;;19.50;99.90;;;;;;5047605;28;20263;-80
2023/06/14 00:02:46;;;;;;;0.10;0.10;;;19.50;99.90;;;;;;5047459;28;20243;-80
2023/06/14 00:05:14;;;;;;;0.10;0.10;;;19.50;99.90;;;;;;5047330;28;20193;-80
2023/06/14 00:07:44;;;;;;;0.10;0.10;;;19.40;99.90;;;;;;5047103;28;20197;-80
2023/06/14 00:10:11;;;;;;;0.10;0.10;;;19.40;99.90;;;;;;5047018;28;20737;-80
2023/06/14 00:12:38;;;;;;;0.10;0.10;;;19.40;99.90;;;;;;5046570;28;20606;-80
2023/06/14 00:15:05;;;;;;;0.10;0.10;;;19.40;99.90;;;;;;5047503;28;20189;-80
2023/06/14 00:17:31;;;;;;;0.10;0.10;;;19.40;99.90;;;;;;5047136;28;20547;-80
2023/06/14 00:19:57;;;;;;;0.10;0.10;;;19.30;99.90;;;;;;5046712;28;20251;-80
2023/06/14 00:22:28;;;;;;;0.10;0.10;;;19.40;99.90;;;;;;5046046;28;20277;-80
2023/06/14 00:24:54;;;;;;;0.10;0.10;;;19.40;99.90;;;;;;5046725;28;20279;-80
2023/06/14 00:27:20;;;;;;;0.20;0.20;;;19.40;99.90;;;;;;5048031;28;20706;-80
2023/06/14 00:29:45;;;;;;;0.10;0.10;;;19.40;99.90;;;;;;5048255;28;20552;-80
2023/06/14 00:32:11;;;;;;;0.20;0.20;;;19.40;99.90;;;;;;5047529;28;20240;-80
2023/06/14 00:34:36;;;;;;;0.10;0.10;;;19.30;99.90;;;;;;5047849;28;20185;-80
2023/06/14 00:37:02;;;;;;;0.10;0.10;;;19.30;99.90;;;;;;5046252;28;20201;-80
2023/06/14 00:39:27;;;;;;;0.10;0.10;;;19.40;99.90;;;;;;5046298;28;20205;-80
2023/06/14 00:41:53;;;;;;;0.10;0.10;;;19.30;99.90;;;;;;5047498;28;21098;-80
2023/06/14 00:44:18;;;;;;;0.10;0.10;;;19.30;99.90;;;;;;5048066;28;20186;-80
2023/06/14 00:46:47;;;;;;;0.10;0.10;;;19.30;99.90;;;;;;5047871;28;20186;-80
2023/06/14 00:49:15;;;;;;;0.10;0.10;;;19.30;99.90;;;;;;5046354;28;20220;-80
2023/06/14 00:51:41;;;;;;;0.10;0.10;;;19.20;99.90;;;;;;5046266;28;20784;-80
2023/06/14 00:54:07;;;;;;;0.10;0.10;;;19.20;99.90;;;;;;5045466;28;20190;-80
2023/06/14 00:56:35;;;;;;;0.10;0.10;;;19.20;99.90;;;;;;5047864;28;20659;-80
2023/06/14 00:59:02;;;;;;;0.10;0.10;;;19.20;99.90;;;;;;5046043;28;20223;-80
2023/06/14 01:01:28;;;;;;;0.10;0.10;;;19.20;99.90;;;;;;5047411;28;20226;-80
2023/06/14 01:03:54;;;;;;;0.10;0.10;;;19.20;99.90;;;;;;5046098;28;20193;-80
2023/06/14 01:06:53;;;;;;;0.00;0.00;;;19.10;99.90;;;;;;5046076;28;20553;-80
2023/06/14 01:09:31;;;;;;;0.10;0.10;;;19.00;99.90;;;;;;5045696;28;20209;-80
2023/06/14 01:12:13;;;;;;;0.17;0.17;;;19.00;99.90;;;;;;5046461;28;20192;-80
2023/06/14 01:14:41;;;;;;;0.10;0.10;;;19.00;99.90;;;;;;5045992;28;20201;-80
2023/06/14 01:17:16;;;;;;;0.10;0.10;;;18.90;99.90;;;;;;5044932;28;20651;-80
2023/06/14 01:19:45;;;;;;;0.40;0.40;;;18.90;99.90;;;;;;5046908;28;20188;-80
2023/06/14 01:22:11;;;;;;;0.10;0.10;;;18.80;99.90;;;;;;5044651;28;20196;-80
2023/06/14 01:24:39;;;;;;;0.10;0.10;;;18.80;99.90;;;;;;5045984;28;20182;-80
2023/06/14 01:27:05;;;;;;;0.10;0.10;;;18.70;99.90;;;;;;5046289;28;20216;-79
2023/06/14 01:29:32;;;;;;;0.10;0.10;;;18.70;99.90;;;;;;5045750;28;20184;-80
2023/06/14 01:32:01;;;;;;;0.10;0.10;;;18.80;99.90;;;;;;5046678;28;20245;-80
2023/06/14 01:34:27;;;;;;;0.10;0.10;;;18.70;99.90;;;;;;5046577;28;20680;-80
2023/06/14 01:36:56;;;;;;;0.10;0.10;;;18.70;99.90;;;;;;5045930;28;20181;-80
2023/06/14 01:39:23;;;;;;;0.10;0.10;;;18.60;99.90;;;;;;5046599;28;20276;-79
2023/06/14 01:41:50;;;;;;;0.10;0.10;;;18.60;99.90;;;;;;5044499;28;20757;-80
2023/06/14 01:44:18;;;;;;;0.10;0.10;;;18.60;99.90;;;;;;5046615;28;20260;-81
2023/06/14 01:46:45;;;;;;;0.10;0.10;;;18.50;99.90;;;;;;5045537;28;20181;-80
2023/06/14 01:49:11;;;;;;;0.10;0.10;;;18.50;99.90;;;;;;5045190;28;20573;-80
2023/06/14 01:51:36;;;;;;;0.10;0.10;;;18.50;99.90;;;;;;5044587;28;20276;-80
2023/06/14 01:54:02;;;;;;;0.10;0.10;;;18.40;99.90;;;;;;5046237;28;20633;-80
2023/06/14 01:56:28;;;;;;;0.10;0.10;;;18.40;99.90;;;;;;5046910;28;20194;-80
2023/06/14 01:58:53;;;;;;;0.10;0.10;;;18.40;99.90;;;;;;5045392;28;20205;-80
2023/06/14 02:01:21;;;;;;;0.10;0.10;;;18.30;99.90;;;;;;5046567;28;20696;-80
2023/06/14 02:03:47;;;;;;;0.10;0.10;;;18.30;99.90;;;;;;5046545;28;20174;-80
2023/06/14 02:06:12;;;;;;;0.10;0.10;;;18.30;99.90;;;;;;5045095;28;20202;-80
2023/06/14 02:08:38;;;;;;;0.10;0.10;;;18.30;99.90;;;;;;5045041;28;20237;-80
2023/06/14 02:11:03;;;;;;;0.10;0.10;;;18.30;99.90;;;;;;5044715;28;20238;-80
2023/06/14 02:13:29;;;;;;;0.20;0.20;;;18.30;99.90;;;;;;5045231;28;20678;-80
2023/06/14 02:15:54;;;;;;;0.10;0.10;;;18.20;99.90;;;;;;5045137;28;20716;-80
2023/06/14 02:18:21;;;;;;;0.10;0.10;;;18.20;99.90;;;;;;5044542;28;20217;-80
2023/06/14 02:20:47;;;;;;;0.10;0.10;;;18.20;99.90;;;;;;5043916;28;20213;-80
2023/06/14 02:23:12;;;;;;;0.10;0.10;;;18.20;99.90;;;;;;5044460;28;20319;-80
2023/06/14 02:25:39;;;;;;;0.10;0.10;;;18.20;99.90;;;;;;5044833;28;20185;-80
2023/06/14 02:28:05;;;;;;;1.30;1.30;;;18.20;99.90;;;;;;5044110;28;20201;-80
2023/06/14 02:30:30;;;;;;;0.10;0.10;;;18.10;99.90;;;;;;5042936;28;20186;-80
2023/06/14 02:32:56;;;;;;;0.10;0.10;;;18.20;99.90;;;;;;5043798;28;20187;-80
2023/06/14 02:35:26;;;;;;;0.10;0.10;;;18.10;99.90;;;;;;5043550;28;20208;-79
2023/06/14 02:37:52;;;;;;;0.10;0.10;;;18.10;99.90;;;;;;5044183;28;20693;-80
2023/06/14 02:40:18;;;;;;;0.20;0.20;;;18.00;99.90;;;;;;5044422;28;20205;-80
2023/06/14 02:42:44;;;;;;;0.10;0.10;;;18.00;99.90;;;;;;5045242;28;20189;-80
2023/06/14 02:45:09;;;;;;;0.10;0.10;;;18.00;99.90;;;;;;5045989;28;20363;-80
2023/06/14 02:47:35;;;;;;;0.10;0.10;;;18.00;99.90;;;;;;5044805;28;20575;-80
2023/06/14 02:50:00;;;;;;;0.10;0.10;;;17.90;99.90;;;;;;5044362;28;20887;-80
2023/06/14 02:52:26;;;;;;;0.10;0.10;;;17.90;99.90;;;;;;5044337;28;20630;-80
2023/06/14 02:54:51;;;;;;;0.10;0.10;;;17.80;99.90;;;;;;5044502;28;20609;-80
2023/06/14 02:57:17;;;;;;;0.10;0.10;;;17.80;99.90;;;;;;5044235;28;20225;-79
2023/06/14 02:59:43;;;;;;;0.10;0.10;;;17.80;99.90;;;;;;5045594;28;20265;-79
2023/06/14 03:02:08;;;;;;;0.10;0.10;;;17.80;99.90;;;;;;5044016;28;20212;-80
2023/06/14 03:04:37;;;;;;;0.10;0.10;;;17.80;99.90;;;;;;5043591;28;20708;-80
2023/06/14 03:07:08;;;;;;;0.10;0.10;;;17.70;99.90;;;;;;5044159;28;20185;-80
2023/06/14 03:09:35;;;;;;;0.00;0.00;;;17.70;99.90;;;;;;5043672;28;20186;-80
2023/06/14 03:12:00;;;;;;;0.10;0.10;;;17.60;99.90;;;;;;5044143;28;20272;-80
2023/06/14 03:14:26;;;;;;;0.10;0.10;;;17.60;99.90;;;;;;5035536;28;20245;-80
2023/06/14 03:16:56;;;;;;;0.10;0.10;;;17.50;99.90;;;;;;5044438;28;20182;-80
2023/06/14 03:19:22;;;;;;;0.10;0.10;;;17.50;99.90;;;;;;5043923;28;20188;-80
2023/06/14 03:21:48;;;;;;;0.10;0.10;;;17.50;99.90;;;;;;5043264;28;20209;-80
2023/06/14 03:24:16;;;;;;;0.10;0.10;;;17.40;99.90;;;;;;5044369;28;20205;-80
2023/06/14 03:26:41;;;;;;;0.10;0.10;;;17.40;99.90;;;;;;5045557;28;20185;-80
2023/06/14 03:29:07;;;;;;;0.10;0.10;;;17.40;99.90;;;;;;5043801;28;20201;-80
2023/06/14 03:31:34;;;;;;;0.10;0.10;;;17.40;99.90;;;;;;5042980;28;20823;-80
2023/06/14 03:34:01;;;;;;;0.10;0.10;;;17.50;99.90;;;;;;5042791;28;20560;-80
2023/06/14 03:36:27;;;;;;;0.10;0.10;;;17.50;99.90;;;;;;5045950;28;20261;-80
2023/06/14 03:38:53;;;;;;;0.10;0.10;;;17.80;99.90;;;;;;5043804;28;20577;-80
2023/06/14 03:41:19;;;;;;;0.10;0.10;;;18.20;99.90;;;;;;5043746;28;20213;-80
2023/06/14 03:43:44;;;;;;;0.10;0.10;;;18.70;99.90;;;;;;5043904;28;20182;-80
2023/06/14 03:46:10;;;;;;;0.10;0.10;;;18.90;99.90;;;;;;5043788;28;20193;-80
2023/06/14 03:48:35;;;;;;;0.10;0.10;;;19.10;99.90;;;;;;5044249;28;20224;-80
2023/06/14 03:51:02;;;;;;;0.10;0.10;;;19.20;99.90;;;;;;5046495;28;20197;-79
2023/06/14 03:53:29;;;;;;;0.10;0.10;;;19.20;99.90;;;;;;5047759;28;20270;-80
2023/06/14 03:55:54;;;;;;;0.10;0.10;;;19.50;99.90;;;;;;5047644;28;20240;-80
2023/06/14 03:58:20;;;;;;;0.10;0.10;;;19.50;99.90;;;;;;5048819;28;20602;-80
2023/06/14 04:00:46;;;;;;;0.10;0.10;;;20.10;99.90;;;;;;5046946;28;20323;-79
2023/06/14 04:03:13;;;;;;;0.10;0.10;;;20.60;99.90;;;;;;5047483;28;20193;-80
2023/06/14 04:05:41;;;;;;;0.10;0.10;;;21.00;99.90;;;;;;5048636;28;20229;-80
2023/06/14 04:08:08;;;;;;;0.10;0.10;;;21.10;99.90;;;;;;5048904;28;20209;-79
2023/06/14 04:10:34;;;;;;;0.10;0.10;;;21.00;99.90;;;;;;5050922;28;20197;-80
2023/06/14 04:13:00;;;;;;;0.10;0.10;;;21.10;99.90;;;;;;5050310;28;20186;-80
2023/06/14 04:15:27;;;;;;;0.10;0.10;;;21.30;99.90;;;;;;5050396;28;20185;-79
2023/06/14 04:17:57;;;;;;;0.10;0.10;;;21.50;99.90;;;;;;5049934;28;20201;-79
2023/06/14 04:20:24;;;;;;;0.10;0.10;;;21.40;99.90;;;;;;5051218;28;20679;-80
2023/06/14 04:22:49;;;;;;;0.10;0.10;;;21.90;99.90;;;;;;5048823;28;20261;-80
2023/06/14 04:25:15;;;;;;;0.10;0.10;;;21.90;99.90;;;;;;5050152;28;20281;-79
2023/06/14 04:27:41;;;;;;;0.10;0.10;;;21.30;99.90;;;;;;5049856;28;20233;-81
2023/06/14 04:30:07;;;;;;;0.10;0.10;;;20.70;99.90;;;;;;5049711;28;20262;-80
2023/06/14 04:32:38;;;;;;;0.10;0.10;;;20.60;99.90;;;;;;5049212;28;20242;-80
2023/06/14 04:35:05;;;;;;;0.10;0.10;;;20.20;99.90;;;;;;5048309;28;20738;-79
2023/06/14 04:37:30;;;;;;;0.10;0.10;;;19.80;99.90;;;;;;5047647;28;20197;-80
2023/06/14 04:39:56;;;;;;;0.10;0.10;;;19.60;99.90;;;;;;5049078;28;20275;-79
2023/06/14 04:42:25;;;;;;;0.10;0.10;;;19.50;99.90;;;;;;5047398;28;20173;-80
2023/06/14 04:44:51;;;;;;;0.10;0.10;;;19.30;99.90;;;;;;5048707;28;20182;-80
2023/06/14 04:47:17;;;;;;;0.10;0.10;;;19.30;99.90;;;;;;5047061;28;20284;-80
2023/06/14 04:49:43;;;;;;;0.10;0.10;;;19.30;99.90;;;;;;5047152;28;20587;-80
2023/06/14 04:52:10;;;;;;;0.10;0.10;;;19.10;99.90;;;;;;5046681;28;20191;-80
2023/06/14 04:54:37;;;;;;;0.10;0.10;;;19.00;99.90;;;;;;5046988;28;20268;-79
2023/06/14 04:57:04;;;;;;;0.10;0.10;;;18.90;99.90;;;;;;5047697;28;20205;-80
2023/06/14 04:59:33;;;;;;;0.10;0.10;;;18.90;99.90;;;;;;5048001;28;20264;-80
2023/06/14 05:01:59;;;;;;;0.10;0.10;;;18.90;99.90;;;;;;5046908;28;20582;-80
2023/06/14 05:04:26;;;;;;;0.10;0.10;;;19.10;99.90;;;;;;5048619;28;20268;-80
2023/06/14 05:06:54;;;;;;;0.10;0.10;;;19.10;99.90;;;;;;5046346;28;20196;-80
2023/06/14 05:09:20;;;;;;;0.10;0.10;;;19.30;99.90;;;;;;5046931;28;20193;-80
2023/06/14 05:11:45;;;;;;;0.10;0.10;;;19.30;99.90;;;;;;5046603;28;20193;-80
2023/06/14 05:14:12;;;;;;;0.10;0.10;;;19.20;99.90;;;;;;5047686;28;20252;-80
2023/06/14 05:16:38;;;;;;;0.10;0.10;;;19.30;99.90;;;;;;5048479;28;20192;-80
2023/06/14 05:19:04;;;;;;;0.10;0.10;;;19.20;99.90;;;;;;5050038;28;20206;-80
2023/06/14 05:21:30;;;;;;;0.10;0.10;;;19.10;99.90;;;;;;5050486;28;20233;-79
2023/06/14 05:23:56;;;;;;;0.10;0.10;;;19.10;99.90;;;;;;5050623;28;20262;-80
2023/06/14 05:26:25;;;;;;;0.10;0.10;;;19.10;99.90;;;;;;5050284;28;20185;-80
2023/06/14 05:28:52;;;;;;;0.10;0.10;;;19.10;99.90;;;;;;5049697;28;20209;-80
2023/06/14 05:31:18;;;;;;;0.10;0.10;;;19.20;99.90;;;;;;5048255;28;20196;-80
2023/06/14 05:33:43;;;;;;;0.10;0.10;;;19.10;99.90;;;;;;5047606;28;20189;-79
2023/06/14 05:36:08;;;;;;;0.10;0.10;;;19.00;99.90;;;;;;5049487;28;20193;-80
2023/06/14 05:38:34;;;;;;;0.10;0.10;;;19.10;99.90;;;;;;5046969;28;20267;-80
2023/06/14 05:40:59;;;;;;;0.50;0.50;;;19.10;99.90;;;;;;5046139;28;20205;-79
2023/06/14 05:43:25;;;;;;;0.10;0.10;;;19.10;99.90;;;;;;5046720;28;20190;-80
2023/06/14 05:45:50;;;;;;;0.10;0.10;;;19.10;99.90;;;;;;5046291;28;20760;-80
2023/06/14 05:48:16;;;;;;;0.10;0.10;;;19.20;99.90;;;;;;5048969;28;20249;-80
2023/06/14 05:50:41;;;;;;;0.10;0.10;;;19.20;99.90;;;;;;5046342;28;20217;-83
2023/06/14 05:53:07;;;;;;;3.40;3.23;;;19.30;99.90;;;;;;5046192;28;20198;-83
2023/06/14 05:55:32;;;;;;;0.10;0.10;;;19.30;99.90;;;;;;5046156;28;20283;-80
2023/06/14 05:57:58;;;;;;;0.10;0.10;;;19.40;99.90;;;;;;5045669;28;20217;-80
2023/06/14 06:00:23;;;;;;;0.30;0.30;;;19.50;99.90;;;;;;5045382;28;20754;-80
2023/06/14 06:02:49;;;;;;;0.10;0.10;;;19.40;99.90;;;;;;5047171;28;20185;-79
2023/06/14 06:05:15;;;;;;;0.10;0.10;;;19.40;99.90;;;;;;5047423;28;20553;-80
2023/06/14 06:07:41;;;;;;;0.10;0.10;;;19.50;99.90;;;;;;5045529;28;20208;-80
2023/06/14 06:10:07;;;;;;;0.10;0.10;;;19.70;99.90;;;;;;5045689;28;20213;-80
2023/06/14 06:12:33;;;;;;;0.10;0.10;;;19.70;99.90;;;;;;5044548;28;20203;-80
2023/06/14 06:14:59;;;;;;;0.10;0.10;;;19.90;99.90;;;;;;5046830;28;20193;-80
2023/06/14 06:17:28;;;;;;;0.10;0.10;;;19.80;99.90;;;;;;5047152;28;20209;-80
2023/06/14 06:19:54;;;;;;;0.10;0.10;;;19.90;99.90;;;;;;5052966;28;20189;-80
2023/06/14 06:22:20;;;;;;;0.10;0.10;;;19.90;99.90;;;;;;5044870;28;20238;-80
2023/06/14 06:24:45;;;;;;;0.10;0.10;;;20.00;99.90;;;;;;5046713;28;20239;-80
2023/06/14 06:27:12;;;;;;;0.10;0.10;;;20.20;99.90;;;;;;5045819;28;20192;-80
2023/06/14 06:29:38;;;;;;;0.10;0.10;;;20.30;99.90;;;;;;5044847;28;20193;-80
2023/06/14 06:32:04;;;;;;;0.10;0.10;;;20.30;99.90;;;;;;5045053;28;20280;-79
2023/06/14 06:34:29;;;;;;;0.10;0.10;;;20.10;99.90;;;;;;5048712;28;20190;-80
2023/06/14 06:36:55;;;;;;;0.10;0.10;;;20.00;99.90;;;;;;5047664;28;20209;-80
2023/06/14 06:39:20;;;;;;;0.10;0.10;;;19.80;99.90;;;;;;5045334;28;20261;-80
2023/06/14 06:41:46;;;;;;;0.10;0.10;;;20.00;99.90;;;;;;5045936;28;20209;-79
2023/06/14 06:44:12;;;;;;;0.10;0.10;;;19.90;99.90;;;;;;5043602;28;20189;-80
2023/06/14 06:46:40;;;;;;;0.10;0.10;;;20.00;99.90;;;;;;5045150;28;20190;-79
2023/06/14 06:49:06;;;;;;;0.20;0.20;;;20.00;99.90;;;;;;5045292;28;20290;-80
2023/06/14 06:51:32;;;;;;;0.20;0.20;;;19.90;99.90;;;;;;5044402;28;20186;-80
2023/06/14 06:53:58;;;;;;;0.50;0.50;;;20.00;99.90;;;;;;5046351;28;20213;-79
2023/06/14 06:56:24;;;;;;;0.47;0.47;;;20.20;99.90;;;;;;5045032;28;20223;-80
2023/06/14 06:58:50;;;;;;;0.10;0.10;;;20.20;99.90;;;;;;5046028;28;20205;-80
2023/06/14 07:01:16;;;;;;;0.10;0.10;;;20.00;99.90;;;;;;5045945;28;20339;-80
2023/06/14 07:03:42;;;;;;;0.10;0.10;;;19.90;99.90;;;;;;5048792;28;20190;-80
2023/06/14 07:06:08;;;;;;;0.10;0.10;;;19.80;99.90;;;;;;5044774;28;20667;-80
2023/06/14 07:08:34;;;;;;;0.10;0.10;;;19.60;99.90;;;;;;5046074;28;20717;-80
2023/06/14 07:10:59;;;;;;;0.10;0.10;;;19.60;99.90;;;;;;5049296;28;20181;-79
2023/06/14 07:13:25;;;;;;;0.10;0.10;;;19.70;99.90;;;;;;5047441;28;20189;-80
2023/06/14 07:15:53;;;;;;;0.10;0.10;;;20.10;99.90;;;;;;5047966;28;20206;-80
2023/06/14 07:18:18;;;;;;;0.10;0.10;;;20.00;99.90;;;;;;5048252;28;20209;-80
2023/06/14 07:20:44;;;;;;;0.10;0.10;;;19.90;99.90;;;;;;5046845;28;20346;-80
2023/06/14 07:23:10;;;;;;;0.20;0.20;;;20.00;99.90;;;;;;5046419;28;20257;-80
2023/06/14 07:25:36;;;;;;;0.10;0.10;;;19.80;99.90;;;;;;5050322;28;20201;-80
2023/06/14 07:28:01;;;;;;;0.10;0.10;;;19.70;99.90;;;;;;5049725;28;20236;-80
2023/06/14 07:30:29;;;;;;;0.10;0.10;;;20.10;99.90;;;;;;5051035;28;20199;-80
2023/06/14 07:32:55;;;;;;;0.10;0.10;;;20.10;99.90;;;;;;5050471;28;20211;-80
2023/06/14 07:35:21;;;;;;;0.10;0.10;;;20.40;99.90;;;;;;5050567;28;20906;-79
2023/06/14 07:37:46;;;;;;;6.23;4.17;;;20.40;99.90;;;;;;5048499;28;20934;-80
2023/06/14 07:40:13;;;;;;;0.10;0.10;;;20.40;99.90;;;;;;5050416;28;20216;-80
2023/06/14 07:42:39;;;;;;;0.10;0.10;;;20.60;99.90;;;;;;5048443;28;20227;-80
2023/06/14 07:45:05;;;;;;;0.10;0.10;;;20.50;99.90;;;;;;5048852;28;20213;-80
2023/06/14 07:47:30;;;;;;;0.10;0.10;;;20.50;99.90;;;;;;5048134;28;20260;-80
2023/06/14 07:49:56;;;;;;;0.10;0.10;;;20.80;99.90;;;;;;5049409;28;20178;-80
2023/06/14 07:52:21;;;;;;;0.10;0.10;;;20.70;99.90;;;;;;5050856;28;20178;-80
2023/06/14 07:54:47;;;;;;;0.10;0.10;;;20.60;99.90;;;;;;5047764;28;20182;-80
2023/06/14 07:57:13;;;;;;;0.10;0.10;;;20.60;99.90;;;;;;5047607;28;20755;-80
2023/06/14 07:59:38;;;;;;;0.10;0.10;;;21.00;99.90;;;;;;5047964;28;20193;-80
2023/06/14 08:02:04;;;;;;;0.10;0.10;;;21.00;99.90;;;;;;5047491;28;20202;-79
2023/06/14 08:04:31;;;;;;;0.10;0.10;;;21.20;99.90;;;;;;5049108;28;20173;-80
2023/06/14 08:06:56;;;;;;;0.10;0.10;;;21.10;99.90;;;;;;5048118;28;20557;-80
2023/06/14 08:09:22;;;;;;;0.10;0.10;;;21.50;99.90;;;;;;5047988;28;20208;-80
2023/06/14 08:11:48;;;;;;;0.10;0.10;;;21.50;99.90;;;;;;5046427;28;20243;-80
2023/06/14 08:14:13;;;;;;;0.10;0.10;;;21.50;99.90;;;;;;5047752;28;20182;-80
2023/06/14 08:16:39;;;;;;;0.10;0.10;;;21.00;99.90;;;;;;5047997;28;20181;-80
2023/06/14 08:19:05;;;;;;;0.10;0.10;;;21.20;99.90;;;;;;5048991;28;20263;-80
2023/06/14 08:21:33;;;;;;;0.10;0.10;;;20.80;99.90;;;;;;5046652;28;20206;-80
2023/06/14 08:23:59;;;;;;;0.10;0.10;;;21.00;99.90;;;;;;5047492;28;20182;-80
2023/06/14 08:26:28;;;;;;;0.10;0.10;;;21.40;99.90;;;;;;5046541;28;21079;-80
2023/06/14 08:28:54;;;;;;;0.10;0.10;;;21.70;99.90;;;;;;5052976;28;20201;-79
2023/06/14 08:31:20;;;;;;;0.10;0.10;;;21.40;99.90;;;;;;5051752;28;20192;-80
2023/06/14 08:33:46;;;;;;;0.10;0.10;;;21.60;99.90;;;;;;5050311;28;20190;-80
2023/06/14 08:36:12;;;;;;;0.10;0.10;;;21.60;99.90;;;;;;5050655;28;20182;-79
2023/06/14 08:38:38;;;;;;;0.10;0.10;;;21.50;99.90;;;;;;5049800;28;20212;-80
2023/06/14 08:41:08;;;;;;;0.47;0.47;;;22.00;99.90;;;;;;5048541;28;20198;-80
2023/06/14 08:43:34;;;;;;;0.20;0.20;;;21.70;99.90;;;;;;5050393;28;20708;-80
2023/06/14 08:46:02;;;;;;;4.33;4.13;;;21.90;99.90;;;;;;5048997;28;20174;-80
2023/06/14 08:48:28;;;;;;;0.10;0.10;;;21.70;99.90;;;;;;5050123;28;20229;-80
2023/06/14 08:51:03;;;;;;;0.10;0.10;;;22.10;99.90;;;;;;5048071;28;20228;-80
2023/06/14 08:53:31;;;;;;;0.10;0.10;;;21.90;99.90;;;;;;5047480;28;20629;-80
2023/06/14 08:56:01;;;;;;;0.43;0.43;;;21.70;99.90;;;;;;5049105;28;20189;-80
2023/06/14 08:58:29;;;;;;;0.10;0.10;;;21.60;99.90;;;;;;5049091;28;20205;-80
2023/06/14 09:00:55;;;;;;;0.10;0.10;;;22.10;99.90;;;;;;5046836;28;20205;-80
2023/06/14 09:03:22;;;;;;;0.10;0.10;;;22.40;99.90;;;;;;5046710;28;20841;-80
2023/06/14 09:05:47;;;;;;;0.10;0.10;;;22.20;99.90;;;;;;5047543;28;20213;-80
2023/06/14 09:08:13;;;;;;;0.10;0.10;;;22.70;99.90;;;;;;5045617;28;20208;-80
2023/06/14 09:10:40;;;;;;;0.10;0.10;;;22.40;99.90;;;;;;5047576;28;20225;-80
2023/06/14 09:13:06;;;;;;;0.10;0.10;;;22.20;99.90;;;;;;5047044;28;20193;-80
2023/06/14 09:15:32;;;;;;;0.10;0.10;;;22.30;99.90;;;;;;5047254;28;20216;-80
2023/06/14 09:17:58;;;;;;;0.10;0.10;;;22.30;99.90;;;;;;5048119;28;20241;-79
2023/06/14 09:20:24;;;;;;;0.10;0.10;;;22.20;99.90;;;;;;5050241;28;20213;-80
2023/06/14 09:22:50;;;;;;;0.10;0.10;;;22.30;99.90;;;;;;5048746;28;21097;-80
2023/06/14 09:25:16;;;;;;;4.07;3.70;;;22.40;99.90;;;;;;5048481;28;20182;-80
2023/06/14 09:27:42;;;;;;;0.10;0.10;;;21.90;99.90;;;;;;5046781;28;20212;-80
2023/06/14 09:30:10;;;;;;;0.10;0.10;;;22.20;99.90;;;;;;5046179;28;20190;-80
2023/06/14 09:32:39;;;;;;;0.10;0.10;;;22.50;99.90;;;;;;5048115;28;20173;-80
2023/06/14 09:35:07;;;;;;;0.20;0.20;;;22.40;99.90;;;;;;5046485;28;20185;-80
2023/06/14 09:37:34;;;;;;;0.10;0.10;;;22.20;99.90;;;;;;5046162;28;20258;-80
2023/06/14 09:40:00;;;;;;;0.10;0.10;;;22.10;99.90;;;;;;5046449;28;20186;-80
2023/06/14 09:42:27;;;;;;;0.10;0.10;;;22.50;99.90;;;;;;5047980;28;20315;-80
2023/06/14 09:44:54;;;;;;;0.10;0.10;;;22.70;99.90;;;;;;5046519;28;20247;-80
2023/06/14 09:47:21;;;;;;;0.10;0.10;;;22.80;99.90;;;;;;5048046;28;20202;-79
2023/06/14 09:49:47;;;;;;;0.10;0.10;;;22.30;99.90;;;;;;5050887;28;20189;-80
2023/06/14 09:52:18;;;;;;;0.10;0.10;;;22.50;99.90;;;;;;5048886;28;20182;-79
2023/06/14 09:54:52;;;;;;;0.20;0.20;;;22.50;99.90;;;;;;5047960;28;20185;-80
2023/06/14 09:57:22;;;;;;;0.10;0.10;;;22.90;99.90;;;;;;5048285;28;20209;-80
2023/06/14 09:59:52;;;;;;;0.10;0.10;;;23.00;99.90;;;;;;5049268;28;20185;-80
2023/06/14 10:02:23;;;;;;;0.10;0.10;;;22.90;99.90;;;;;;5046982;28;20700;-80
2023/06/14 10:04:57;;;;;;;0.10;0.10;;;23.00;99.90;;;;;;5047409;28;20186;-80
2023/06/14 10:07:25;;;;;;;0.10;0.10;;;22.90;99.90;;;;;;5046029;28;20233;-80
2023/06/14 10:09:53;;;;;;;0.10;0.10;;;22.80;99.90;;;;;;5048324;28;20919;-80
2023/06/14 10:12:22;;;;;;;0.10;0.10;;;23.00;99.90;;;;;;5046371;28;20185;-80
2023/06/14 10:14:50;;;;;;;0.10;0.10;;;23.70;99.90;;;;;;5045956;28;20201;-80
2023/06/14 10:17:48;;;;;;;0.10;0.10;;;23.30;99.90;;;;;;5045862;28;20269;-82
2023/06/14 10:20:23;;;;;;;0.10;0.10;;;23.20;99.90;;;;;;5046115;28;20186;-82
2023/06/14 10:22:59;;;;;;;0.10;0.10;;;23.30;99.90;;;;;;5045753;28;20197;-82
2023/06/14 10:25:33;;;;;;;0.10;0.10;;;23.90;99.90;;;;;;5045904;28;20184;-83
2023/06/14 10:28:16;;;;;;;0.10;0.10;;;23.30;99.90;;;;;;5046822;28;20423;-83
2023/06/14 10:31:02;;;;;;;0.10;0.10;;;23.90;99.90;;;;;;5045542;28;20194;-80
2023/06/14 10:33:28;;;;;;;0.10;0.10;;;23.90;99.90;;;;;;5046797;28;20201;-80
2023/06/14 10:36:34;;;;;;;0.10;0.10;;;24.00;99.90;;;;;;5045679;28;20189;-80
2023/06/14 10:39:17;;;;;;;0.10;0.10;;;24.00;99.90;;;;;;5046895;28;20197;-80
2023/06/14 10:41:54;;;;;;;0.10;0.10;;;23.70;99.90;;;;;;5044835;28;20698;-80
2023/06/14 10:44:20;;;;;;;0.10;0.10;;;24.10;99.90;;;;;;5045363;28;20251;-83
2023/06/14 10:46:52;;;;;;;0.10;0.10;;;23.60;99.90;;;;;;5045864;28;20186;-81
2023/06/14 10:49:19;;;;;;;0.10;0.10;;;23.00;99.90;;;;;;5044321;28;20228;-81
2023/06/14 10:51:49;;;;;;;0.10;0.10;;;23.30;99.90;;;;;;5044674;28;20197;-81
2023/06/14 10:54:22;;;;;;;0.10;0.10;;;23.40;99.90;;;;;;5044809;28;20186;-81
2023/06/14 10:56:49;;;;;;;0.10;0.10;;;23.80;99.90;;;;;;5045363;28;20307;-81
2023/06/14 10:59:17;;;;;;;0.10;0.10;;;24.00;99.90;;;;;;5045066;28;20201;-80
2023/06/14 11:02:24;;;;;;;0.10;0.10;;;23.90;99.90;;;;;;5046621;28;20213;-80
2023/06/14 11:04:52;;;;;;;0.10;0.10;;;24.10;99.90;;;;;;5045133;28;20193;-81
2023/06/14 11:07:49;;;;;;;0.10;0.10;;;23.30;99.90;;;;;;5046351;28;20196;-81
2023/06/14 11:10:24;;;;;;;0.10;0.10;;;23.60;99.90;;;;;;5046502;28;20186;-80
2023/06/14 11:12:52;;;;;;;0.10;0.10;;;23.20;99.90;;;;;;5049501;28;20189;-80
2023/06/14 11:15:17;;;;;;;0.10;0.10;;;24.10;99.90;;;;;;5048124;28;20209;-80
2023/06/14 11:17:56;;;;;;;0.10;0.10;;;23.80;99.90;;;;;;5049122;28;20725;-80
2023/06/14 11:20:25;;;;;;;0.10;0.10;;;24.50;99.90;;;;;;5046690;28;20756;-80
2023/06/14 11:22:52;;;;;;;0.10;0.10;;;24.40;99.90;;;;;;5047604;28;20181;-80
2023/06/14 11:25:18;;;;;;;0.10;0.10;;;24.10;99.90;;;;;;5046902;28;20213;-81
2023/06/14 11:27:44;;;;;;;0.10;0.10;;;22.90;99.90;;;;;;5044924;28;20291;-81
2023/06/14 11:30:11;;;;;;;0.10;0.10;;;22.90;99.90;;;;;;5047637;28;20928;-80
2023/06/14 11:32:37;;;;;;;0.10;0.10;;;23.40;99.90;;;;;;5047145;28;20213;-80
2023/06/14 11:35:07;;;;;;;0.10;0.10;;;23.40;99.90;;;;;;5046510;28;20685;-80
2023/06/14 11:37:33;;;;;;;0.10;0.10;;;23.70;99.90;;;;;;5044884;28;20290;-81
2023/06/14 11:40:00;;;;;;;0.10;0.10;;;23.90;99.90;;;;;;5045318;28;20247;-80
2023/06/14 11:42:29;;;;;;;0.10;0.10;;;24.50;99.90;;;;;;5046903;28;20206;-81
2023/06/14 11:44:55;;;;;;;0.10;0.10;;;23.60;99.90;;;;;;5054428;28;20551;-80
2023/06/14 11:47:21;;;;;;;0.10;0.10;;;23.60;99.90;;;;;;5045987;28;20186;-80
2023/06/14 11:49:47;;;;;;;0.10;0.10;;;23.90;99.90;;;;;;5047837;28;20194;-80
2023/06/14 11:52:13;;;;;;;0.10;0.10;;;23.90;99.90;;;;;;5047729;28;20548;-81
2023/06/14 11:54:40;;;;;;;0.10;0.10;;;24.30;99.90;;;;;;5047190;28;20561;-81
2023/06/14 11:57:07;;;;;;;0.10;0.10;;;24.60;99.90;;;;;;5044834;28;20186;-81
2023/06/14 11:59:38;;;;;;;0.10;0.10;;;24.20;99.90;;;;;;5044729;28;20185;-81
2023/06/14 12:02:04;;;;;;;0.10;0.10;;;24.00;99.90;;;;;;5044367;28;20209;-80
2023/06/14 12:04:30;;;;;;;0.10;0.10;;;24.90;99.90;;;;;;5045166;28;21048;-81
2023/06/14 12:06:57;;;;;;;0.10;0.10;;;24.40;99.90;;;;;;5044667;28;20185;-81
2023/06/14 12:09:24;;;;;;;0.10;0.10;;;24.50;99.90;;;;;;5044646;28;20237;-81
2023/06/14 12:11:50;;;;;;;0.10;0.10;;;24.40;99.90;;;;;;5046929;28;20192;-81
2023/06/14 12:14:16;;;;;;;0.10;0.10;;;24.50;99.90;;;;;;5057370;28;20550;-81
2023/06/14 12:16:42;;;;;;;0.10;0.10;;;24.30;99.90;;;;;;5048347;28;20659;-81
2023/06/14 12:19:16;;;;;;;0.10;0.10;;;24.80;99.90;;;;;;5056612;28;20213;-81
2023/06/14 12:21:46;;;;;;;0.10;0.10;;;24.70;99.90;;;;;;5049150;28;20202;-81
2023/06/14 12:24:12;;;;;;;0.10;0.10;;;24.80;99.90;;;;;;5047953;28;20238;-80
2023/06/14 12:26:39;;;;;;;0.10;0.10;;;24.90;99.90;;;;;;5047730;28;20213;-81
2023/06/14 12:29:07;;;;;;;0.10;0.10;;;24.90;99.90;;;;;;5047686;28;20202;-81
2023/06/14 12:31:32;;;;;;;0.10;0.10;;;25.20;99.90;;;;;;5047765;28;20196;-81
2023/06/14 12:33:59;;;;;;;0.10;0.10;;;24.20;99.90;;;;;;5046706;28;20565;-81
2023/06/14 12:36:25;;;;;;;0.10;0.10;;;25.10;99.90;;;;;;5050634;28;20189;-80
2023/06/14 12:38:53;;;;;;;0.10;0.10;;;25.60;99.90;;;;;;5049324;28;20232;-81
2023/06/14 12:41:21;;;;;;;0.10;0.10;;;26.40;99.90;;;;;;5048067;28;20209;-81
2023/06/14 12:43:46;;;;;;;0.10;0.10;;;26.40;99.90;;;;;;5048291;28;20189;-81
2023/06/14 12:46:12;;;;;;;0.10;0.10;;;26.60;99.90;;;;;;5047387;28;20181;-81
2023/06/14 12:48:37;;;;;;;0.10;0.10;;;26.00;99.90;;;;;;5048428;28;21104;-81